Ashaiiu, Virginia
Current Conditions -  °F | °C
As of 5:54 PM on Thursday 23 Oct 2014 (Local Time) from KOFP Reporting Station
Scattered Clouds Scattered Clouds  
Wind Chill: 63°   Ceiling: Unl
Heat Index: 63°   Visibility: 10mi
Dew Point: 44°   Wind: 8mph
Humidity: 50%   Direction: 310°NW
Pressure: 29.93"   Gusts: 22mph
Location:  37.7534°N, 77.495°W
Report Text: KOFP 232154Z AUTO 31007G19KT 10SM SCT050 17/07 A2993 RMK AO2 SLP133 T01720067
Loading
Personal Weather Stations






























Interactive Weather Map New forecast layout! Learn more

10-Day Weather Forecast

Advertisements
Track Severe Weather on mobile